Blaine Lake, Canada
Current Conditions -  °F | °C
As of 7:00 AM on Friday 24 Oct 2014 (Local Time) from CYXE Reporting Station
Broken Clouds Broken Clouds  
Wind Chill: 37°   Ceiling: 8300
Heat Index: 43°   Visibility: 15mi
Dew Point: 36°   Wind: 9mph
Humidity: 76%   Direction: 290°WNW
Pressure: 29.64"   Gusts: NA
Location:  52.83°N, 106.88°W
Report Text: CYXE 241300Z 29008KT 15SM BKN083 BKN120 06/02 A2964 RMK AC5AC1 SLP051
Loading
Personal Weather Stations






























Interactive Weather Map
Tropical Storm Tracking
New forecast layout! Learn more

10-Day Weather Forecast

Advertisements
Track Severe Weather on mobile